Time;durP1;ratioP1;P1;durP2;ratioP2;P2;SDS_P1;SDS_P2;PMS_P1;PMS_P2;Temp;Humidity;BMP_temperature;BMP_pressure;BME280_temperature;BME280_humidity;BME280_pressure;Samples;Min_cycle;Max_cycle;Signal;HPM_P1;HPM_P2
2023/12/26 00:01:06;;;;;;;36.55;34.65;;;;;;;;;;5031360;28;20458;-50
2023/12/26 00:03:31;;;;;;;35.65;33.85;;;;;;;;;;5031669;28;20120;-52
2023/12/26 00:05:57;;;;;;;34.55;32.75;;;;;;;;;;5032657;28;20038;-48
2023/12/26 00:08:22;;;;;;;37.17;35.28;;;;;;;;;;5028206;28;20090;-52
2023/12/26 00:10:47;;;;;;;35.72;33.92;;;;;;;;;;5025759;28;20121;-54
2023/12/26 00:13:13;;;;;;;35.90;34.08;;;;;;;;;;5029019;28;20163;-53
2023/12/26 00:15:38;;;;;;;38.15;36.22;;;;;;;;;;5015541;28;20483;-50
2023/12/26 00:18:04;;;;;;;37.53;35.63;;;;;;;;;;5030525;28;20022;-49
2023/12/26 00:20:29;;;;;;;34.88;33.08;;;;;;;;;;5031749;28;20034;-51
2023/12/26 00:22:55;;;;;;;35.00;33.20;;;;;;;;;;5011905;28;20028;-54
2023/12/26 00:25:21;;;;;;;35.65;33.80;;;;;;;;;;5030152;28;20340;-54
2023/12/26 00:27:46;;;;;;;37.92;36.00;;;;;;;;;;5028179;28;20463;-53
2023/12/26 00:30:12;;;;;;;36.58;34.67;;;;;;;;;;5030996;28;20127;-52
2023/12/26 00:32:37;;;;;;;36.28;34.38;;;;;;;;;;5031714;28;20044;-49
2023/12/26 00:35:03;;;;;;;35.47;33.67;;;;;;;;;;5028697;28;20033;-50
2023/12/26 00:37:29;;;;;;;36.20;34.33;;;;;;;;;;5028124;28;20171;-50
2023/12/26 00:39:54;;;;;;;35.97;34.15;;;;;;;;;;5025921;28;20225;-48
2023/12/26 00:42:20;;;;;;;35.70;33.88;;;;;;;;;;5030008;28;20064;-53
2023/12/26 00:44:45;;;;;;;37.03;35.13;;;;;;;;;;5028978;28;20042;-53
2023/12/26 00:47:10;;;;;;;37.35;35.45;;;;;;;;;;5030972;28;20043;-48
2023/12/26 00:49:36;;;;;;;38.42;36.42;;;;;;;;;;5035833;28;20028;-53
2023/12/26 00:52:01;;;;;;;36.55;34.65;;;;;;;;;;5035492;28;20045;-52
2023/12/26 00:54:26;;;;;;;38.38;36.40;;;;;;;;;;5031966;28;20025;-53
2023/12/26 00:56:52;;;;;;;39.03;37.03;;;;;;;;;;5033304;28;20162;-50
2023/12/26 00:59:17;;;;;;;38.28;36.28;;;;;;;;;;5036773;28;20035;-51
2023/12/26 01:01:42;;;;;;;38.28;36.33;;;;;;;;;;5016478;28;20028;-50
2023/12/26 01:04:08;;;;;;;36.60;34.70;;;;;;;;;;5030447;28;20143;-50
2023/12/26 01:06:33;;;;;;;38.00;36.08;;;;;;;;;;5032376;28;20368;-50
2023/12/26 01:08:59;;;;;;;39.95;37.92;;;;;;;;;;5031458;28;20120;-50
2023/12/26 01:11:24;;;;;;;38.70;36.70;;;;;;;;;;5029243;28;20041;-48
2023/12/26 01:13:49;;;;;;;38.40;36.42;;;;;;;;;;5033057;28;20047;-51
2023/12/26 01:16:15;;;;;;;39.20;37.08;;;;;;;;;;5033106;28;20142;-51
2023/12/26 01:18:40;;;;;;;37.88;35.97;;;;;;;;;;5030797;28;20029;-51
2023/12/26 01:21:08;;;;;;;38.00;36.08;;;;;;;;;;5033025;28;20030;-51
2023/12/26 01:23:34;;;;;;;41.47;39.38;;;;;;;;;;5033877;28;20209;-50
2023/12/26 01:25:59;;;;;;;38.33;36.35;;;;;;;;;;5033360;28;20409;-50
2023/12/26 01:28:24;;;;;;;37.75;35.85;;;;;;;;;;5030828;28;20025;-53
2023/12/26 01:30:50;;;;;;;37.65;35.75;;;;;;;;;;5033220;28;20561;-51
2023/12/26 01:33:15;;;;;;;39.20;37.20;;;;;;;;;;5030808;28;20037;-51
2023/12/26 01:35:41;;;;;;;38.33;36.35;;;;;;;;;;5032215;28;20032;-51
2023/12/26 01:38:06;;;;;;;39.35;37.35;;;;;;;;;;5035150;28;20033;-51
2023/12/26 01:40:33;;;;;;;38.92;36.92;;;;;;;;;;5015932;28;20256;-52
2023/12/26 01:42:58;;;;;;;39.13;37.13;;;;;;;;;;5034117;28;20124;-52
2023/12/26 01:45:23;;;;;;;38.60;36.60;;;;;;;;;;5033811;28;20025;-52
2023/12/26 01:47:53;;;;;;;37.95;36.05;;;;;;;;;;5032039;28;20041;-52
2023/12/26 01:50:19;;;;;;;38.40;36.40;;;;;;;;;;5032583;28;20441;-52
2023/12/26 01:52:45;;;;;;;40.45;38.38;;;;;;;;;;5034033;28;20091;-51
2023/12/26 01:55:13;;;;;;;37.53;35.63;;;;;;;;;;5031766;28;20525;-54
2023/12/26 01:57:39;;;;;;;38.08;36.15;;;;;;;;;;5030678;28;20121;-53
2023/12/26 02:00:07;;;;;;;38.55;36.55;;;;;;;;;;5032053;28;20555;-53
2023/12/26 02:02:33;;;;;;;39.97;37.97;;;;;;;;;;5030614;28;20367;-49
2023/12/26 02:04:59;;;;;;;40.75;38.65;;;;;;;;;;5030736;28;20048;-50
2023/12/26 02:07:25;;;;;;;41.17;39.08;;;;;;;;;;5031792;28;20407;-53
2023/12/26 02:09:50;;;;;;;38.65;36.65;;;;;;;;;;5031443;28;20041;-51
2023/12/26 02:12:16;;;;;;;39.65;37.65;;;;;;;;;;5031750;28;20020;-53
2023/12/26 02:14:43;;;;;;;38.90;36.90;;;;;;;;;;5031428;28;20083;-53
2023/12/26 02:17:13;;;;;;;39.70;37.63;;;;;;;;;;5032683;28;20524;-52
2023/12/26 02:19:42;;;;;;;36.90;35.00;;;;;;;;;;5033709;28;20469;-52
2023/12/26 02:22:08;;;;;;;34.83;33.03;;;;;;;;;;5028111;28;20051;-52
2023/12/26 02:24:33;;;;;;;36.05;34.20;;;;;;;;;;5033614;28;20493;-51
2023/12/26 02:27:00;;;;;;;32.75;31.02;;;;;;;;;;5031553;28;20588;-52
2023/12/26 02:29:28;;;;;;;30.50;28.90;;;;;;;;;;5030448;28;20487;-53
2023/12/26 02:31:55;;;;;;;32.97;30.83;;;;;;;;;;5030435;28;20025;-52
2023/12/26 02:34:21;;;;;;;31.52;29.90;;;;;;;;;;5032123;28;20048;-53
2023/12/26 02:36:47;;;;;;;29.63;28.10;;;;;;;;;;5031917;28;20055;-53
2023/12/26 02:39:14;;;;;;;30.02;28.48;;;;;;;;;;5028988;28;20454;-54
2023/12/26 02:41:39;;;;;;;29.60;28.02;;;;;;;;;;5027871;28;20074;-50
2023/12/26 02:44:05;;;;;;;29.60;28.05;;;;;;;;;;5029444;28;20029;-51
2023/12/26 02:46:30;;;;;;;31.38;29.52;;;;;;;;;;5031083;28;20041;-50
2023/12/26 02:48:55;;;;;;;29.92;28.38;;;;;;;;;;5030231;28;20029;-55
2023/12/26 02:51:21;;;;;;;29.48;27.95;;;;;;;;;;5031723;28;20051;-52
2023/12/26 02:53:46;;;;;;;28.95;27.45;;;;;;;;;;5032159;28;20072;-48
2023/12/26 02:56:11;;;;;;;28.55;27.05;;;;;;;;;;5029215;28;20099;-50
2023/12/26 02:58:37;;;;;;;30.48;28.88;;;;;;;;;;5030078;28;20137;-54
2023/12/26 03:01:02;;;;;;;28.33;26.83;;;;;;;;;;5031226;28;20328;-51
2023/12/26 03:03:28;;;;;;;29.95;28.38;;;;;;;;;;5027805;28;20494;-49
2023/12/26 03:05:53;;;;;;;30.70;29.10;;;;;;;;;;5033338;28;20462;-54
2023/12/26 03:08:19;;;;;;;31.05;29.45;;;;;;;;;;5029939;28;20119;-51
2023/12/26 03:10:44;;;;;;;31.80;30.10;;;;;;;;;;5031756;28;20042;-51
2023/12/26 03:13:09;;;;;;;27.77;26.33;;;;;;;;;;5028925;28;20136;-51
2023/12/26 03:15:35;;;;;;;29.25;27.67;;;;;;;;;;5032200;28;20097;-52
2023/12/26 03:18:00;;;;;;;31.20;29.60;;;;;;;;;;5032153;28;20029;-50
2023/12/26 03:20:27;;;;;;;30.83;29.20;;;;;;;;;;5029768;28;20139;-53
2023/12/26 03:22:52;;;;;;;29.00;27.42;;;;;;;;;;5033225;28;20037;-50
2023/12/26 03:25:18;;;;;;;29.52;28.00;;;;;;;;;;5031357;28;20490;-50
2023/12/26 03:27:43;;;;;;;28.70;27.20;;;;;;;;;;5028305;28;20026;-53
2023/12/26 03:30:09;;;;;;;30.02;28.45;;;;;;;;;;5028112;28;20044;-52
2023/12/26 03:32:34;;;;;;;31.25;29.63;;;;;;;;;;5031748;28;20033;-52
2023/12/26 03:35:01;;;;;;;30.05;28.35;;;;;;;;;;5033207;28;20422;-53
2023/12/26 03:37:26;;;;;;;31.23;29.35;;;;;;;;;;5027868;28;20098;-50
2023/12/26 03:39:52;;;;;;;31.13;29.35;;;;;;;;;;5032819;28;20044;-48
2023/12/26 03:42:17;;;;;;;29.85;28.27;;;;;;;;;;5028078;28;20487;-50
2023/12/26 03:44:46;;;;;;;31.10;29.45;;;;;;;;;;5026501;28;20029;-49
2023/12/26 03:47:12;;;;;;;28.38;26.88;;;;;;;;;;5028163;28;20131;-53
2023/12/26 03:49:37;;;;;;;28.45;26.95;;;;;;;;;;5029768;28;20331;-51
2023/12/26 03:52:03;;;;;;;28.88;27.38;;;;;;;;;;5029036;28;20048;-50
2023/12/26 03:54:28;;;;;;;29.90;28.30;;;;;;;;;;5025999;28;20022;-47
2023/12/26 03:56:54;;;;;;;28.25;26.75;;;;;;;;;;5028518;28;20030;-49
2023/12/26 03:59:19;;;;;;;30.38;28.73;;;;;;;;;;5032508;28;20763;-51
2023/12/26 04:01:46;;;;;;;29.73;28.17;;;;;;;;;;5029437;28;20171;-49
2023/12/26 04:04:12;;;;;;;29.65;27.77;;;;;;;;;;5027469;28;20076;-52
2023/12/26 04:06:37;;;;;;;28.65;27.15;;;;;;;;;;5029690;28;20067;-53
2023/12/26 04:09:03;;;;;;;28.35;26.85;;;;;;;;;;5027218;28;20064;-50
2023/12/26 04:11:30;;;;;;;31.40;29.70;;;;;;;;;;5029357;28;20037;-52
2023/12/26 04:13:55;;;;;;;30.90;29.30;;;;;;;;;;5027424;28;20040;-51
2023/12/26 04:16:21;;;;;;;28.92;27.42;;;;;;;;;;5030766;28;20033;-50
2023/12/26 04:18:46;;;;;;;28.52;27.02;;;;;;;;;;5030219;28;20025;-53
2023/12/26 04:21:12;;;;;;;30.00;28.20;;;;;;;;;;5025992;28;20044;-52
2023/12/26 04:23:37;;;;;;;31.00;28.17;;;;;;;;;;5030050;28;20051;-53
2023/12/26 04:26:02;;;;;;;29.67;28.08;;;;;;;;;;5028786;28;20038;-47
2023/12/26 04:28:28;;;;;;;28.33;26.83;;;;;;;;;;5030091;28;20037;-48
2023/12/26 04:30:53;;;;;;;29.70;28.15;;;;;;;;;;5032117;28;20345;-48
2023/12/26 04:33:19;;;;;;;30.60;28.77;;;;;;;;;;5032129;28;20049;-47
2023/12/26 04:35:45;;;;;;;33.22;31.30;;;;;;;;;;5034582;28;20043;-50
2023/12/26 04:38:12;;;;;;;31.25;29.65;;;;;;;;;;5033418;28;20025;-47
2023/12/26 04:40:37;;;;;;;31.77;30.13;;;;;;;;;;5031232;28;20073;-48
2023/12/26 04:43:05;;;;;;;30.25;28.65;;;;;;;;;;5037706;28;20071;-48
2023/12/26 04:45:31;;;;;;;29.77;28.23;;;;;;;;;;5031714;28;20040;-47
2023/12/26 04:47:56;;;;;;;29.23;27.73;;;;;;;;;;5031277;28;20565;-49
2023/12/26 04:50:21;;;;;;;30.77;29.13;;;;;;;;;;5029955;28;20033;-48
2023/12/26 04:52:47;;;;;;;31.10;29.45;;;;;;;;;;5035400;28;20431;-49
2023/12/26 04:55:13;;;;;;;31.73;30.10;;;;;;;;;;5027201;28;20033;-48
2023/12/26 04:57:39;;;;;;;31.38;29.77;;;;;;;;;;5034237;28;20114;-50
2023/12/26 05:00:05;;;;;;;31.10;29.50;;;;;;;;;;5035339;28;20029;-50
2023/12/26 05:02:30;;;;;;;32.53;30.05;;;;;;;;;;5030489;28;20115;-47
2023/12/26 05:04:56;;;;;;;30.70;29.10;;;;;;;;;;5032539;28;20029;-47
2023/12/26 05:07:21;;;;;;;31.20;29.60;;;;;;;;;;5029522;28;20041;-49
2023/12/26 05:09:46;;;;;;;31.42;29.80;;;;;;;;;;5032052;28;20034;-49
2023/12/26 05:12:12;;;;;;;31.27;29.65;;;;;;;;;;5032094;28;20060;-48
2023/12/26 05:14:38;;;;;;;30.58;28.95;;;;;;;;;;5030160;28;20029;-48
2023/12/26 05:17:04;;;;;;;30.10;28.52;;;;;;;;;;5033258;28;20528;-47
2023/12/26 05:19:29;;;;;;;30.23;28.63;;;;;;;;;;5027503;28;20062;-48
2023/12/26 05:21:54;;;;;;;30.70;29.08;;;;;;;;;;5034048;28;20029;-51
2023/12/26 05:24:20;;;;;;;31.92;29.92;;;;;;;;;;5028741;28;20056;-46
2023/12/26 05:26:45;;;;;;;31.98;30.23;;;;;;;;;;5032064;28;20029;-53
2023/12/26 05:29:11;;;;;;;33.63;31.88;;;;;;;;;;5033495;28;20060;-52
2023/12/26 05:31:38;;;;;;;30.25;28.65;;;;;;;;;;5031028;28;20048;-49
2023/12/26 05:34:06;;;;;;;32.90;31.05;;;;;;;;;;5032380;28;20128;-50
2023/12/26 05:36:31;;;;;;;30.27;28.60;;;;;;;;;;5035718;28;20558;-53
2023/12/26 05:38:58;;;;;;;32.22;30.52;;;;;;;;;;5032884;28;20071;-48
2023/12/26 05:41:25;;;;;;;33.55;31.83;;;;;;;;;;5028944;28;20099;-48
2023/12/26 05:43:51;;;;;;;32.85;31.13;;;;;;;;;;5034955;28;20049;-50
2023/12/26 05:46:17;;;;;;;32.35;30.65;;;;;;;;;;5032100;28;20037;-49
2023/12/26 05:48:42;;;;;;;33.00;31.15;;;;;;;;;;5030447;28;20030;-50
2023/12/26 05:51:08;;;;;;;31.23;29.55;;;;;;;;;;5030756;28;20098;-47
2023/12/26 05:53:33;;;;;;;32.08;30.40;;;;;;;;;;5031922;28;20033;-46
2023/12/26 05:55:58;;;;;;;33.40;31.70;;;;;;;;;;5030632;28;20033;-50
2023/12/26 05:58:25;;;;;;;33.72;32.00;;;;;;;;;;5029789;28;20029;-48
2023/12/26 06:00:50;;;;;;;31.40;29.75;;;;;;;;;;5035219;28;20150;-47
2023/12/26 06:03:16;;;;;;;32.42;30.73;;;;;;;;;;5032559;28;20041;-50
2023/12/26 06:05:41;;;;;;;31.00;29.40;;;;;;;;;;5028974;28;20128;-48
2023/12/26 06:08:07;;;;;;;33.95;32.15;;;;;;;;;;5027790;28;20111;-47
2023/12/26 06:10:33;;;;;;;33.97;31.67;;;;;;;;;;5029869;28;20473;-46
2023/12/26 06:12:58;;;;;;;34.38;32.58;;;;;;;;;;5031245;28;20574;-50
2023/12/26 06:15:24;;;;;;;34.42;32.63;;;;;;;;;;5030532;28;20113;-49
2023/12/26 06:17:49;;;;;;;32.55;30.85;;;;;;;;;;5032500;28;20040;-48
2023/12/26 06:20:15;;;;;;;35.50;33.70;;;;;;;;;;5033276;28;20041;-47
2023/12/26 06:22:40;;;;;;;31.67;29.98;;;;;;;;;;5030490;28;20112;-48
2023/12/26 06:25:05;;;;;;;34.35;32.58;;;;;;;;;;5031019;28;20029;-47
2023/12/26 06:27:31;;;;;;;33.22;31.52;;;;;;;;;;5032188;28;20330;-47
2023/12/26 06:29:56;;;;;;;33.08;31.38;;;;;;;;;;5035520;28;20471;-47
2023/12/26 06:32:22;;;;;;;35.25;33.33;;;;;;;;;;5031992;28;20031;-47
2023/12/26 06:34:47;;;;;;;34.30;32.50;;;;;;;;;;5031619;28;20072;-48
2023/12/26 06:37:12;;;;;;;35.58;33.78;;;;;;;;;;5030737;28;20070;-48
2023/12/26 06:39:39;;;;;;;36.08;34.17;;;;;;;;;;5030566;28;20033;-48
2023/12/26 06:42:04;;;;;;;35.92;34.13;;;;;;;;;;5029805;28;20048;-52
2023/12/26 06:44:30;;;;;;;35.47;33.67;;;;;;;;;;5029892;28;20041;-50
2023/12/26 06:46:56;;;;;;;36.25;34.38;;;;;;;;;;5031594;28;20107;-48
2023/12/26 06:49:21;;;;;;;33.80;31.90;;;;;;;;;;5028967;28;20033;-48
2023/12/26 06:51:46;;;;;;;33.78;31.98;;;;;;;;;;5033680;28;20533;-51
2023/12/26 06:54:12;;;;;;;33.92;32.15;;;;;;;;;;5031112;28;20060;-54
2023/12/26 06:56:37;;;;;;;34.58;32.78;;;;;;;;;;5031927;28;20115;-51
2023/12/26 06:59:02;;;;;;;35.85;34.03;;;;;;;;;;5032571;28;20155;-52
2023/12/26 07:01:28;;;;;;;35.45;33.55;;;;;;;;;;5035164;28;20041;-54
2023/12/26 07:03:53;;;;;;;34.25;32.45;;;;;;;;;;5045470;28;20083;-55
2023/12/26 07:06:18;;;;;;;35.53;33.40;;;;;;;;;;5030508;28;20366;-56
2023/12/26 07:08:45;;;;;;;33.35;31.65;;;;;;;;;;5030875;28;20150;-53
2023/12/26 07:11:10;;;;;;;34.47;32.47;;;;;;;;;;5032034;28;20038;-52
2023/12/26 07:13:35;;;;;;;36.22;34.17;;;;;;;;;;5031782;28;20568;-54
2023/12/26 07:16:00;;;;;;;35.03;33.13;;;;;;;;;;5031334;28;20567;-53
2023/12/26 07:18:26;;;;;;;35.90;33.13;;;;;;;;;;5030971;28;20124;-54
2023/12/26 07:20:51;;;;;;;33.50;31.80;;;;;;;;;;5033475;28;20118;-53
2023/12/26 07:23:17;;;;;;;36.20;34.22;;;;;;;;;;5032853;28;20037;-52
2023/12/26 07:25:42;;;;;;;33.42;31.73;;;;;;;;;;5031029;28;20036;-54
2023/12/26 07:28:08;;;;;;;32.08;30.38;;;;;;;;;;5032984;28;20370;-52
2023/12/26 07:30:34;;;;;;;33.55;31.80;;;;;;;;;;5028867;28;20029;-50
2023/12/26 07:32:59;;;;;;;33.60;31.80;;;;;;;;;;5031035;28;20037;-53
2023/12/26 07:35:25;;;;;;;31.45;29.85;;;;;;;;;;5027446;28;20474;-51
2023/12/26 07:37:50;;;;;;;33.15;31.40;;;;;;;;;;5027480;28;20049;-50
2023/12/26 07:40:16;;;;;;;34.33;32.42;;;;;;;;;;5029096;28;20036;-50
2023/12/26 07:42:41;;;;;;;34.28;32.47;;;;;;;;;;5030373;28;20037;-54
2023/12/26 07:45:07;;;;;;;33.10;31.10;;;;;;;;;;5025928;28;20033;-55
2023/12/26 07:47:32;;;;;;;34.00;32.10;;;;;;;;;;5030362;28;20037;-48
2023/12/26 07:49:58;;;;;;;32.75;31.05;;;;;;;;;;5029911;28;20036;-52
2023/12/26 07:52:23;;;;;;;32.25;30.55;;;;;;;;;;5029720;28;20474;-53
2023/12/26 07:54:48;;;;;;;33.03;30.95;;;;;;;;;;5030013;28;20091;-51
2023/12/26 07:57:14;;;;;;;33.00;31.30;;;;;;;;;;5033200;28;20047;-54
2023/12/26 07:59:39;;;;;;;32.03;30.33;;;;;;;;;;5034588;28;20238;-52
2023/12/26 08:02:05;;;;;;;32.10;30.33;;;;;;;;;;5033775;28;20399;-54
2023/12/26 08:04:30;;;;;;;32.42;30.73;;;;;;;;;;5032861;28;20041;-52
2023/12/26 08:06:55;;;;;;;31.30;29.70;;;;;;;;;;5034205;28;20032;-54
2023/12/26 08:09:21;;;;;;;31.25;29.65;;;;;;;;;;5036810;28;20313;-50
2023/12/26 08:11:46;;;;;;;32.15;30.10;;;;;;;;;;5034325;28;20063;-51
2023/12/26 08:14:17;;;;;;;34.15;32.28;;;;;;;;;;5036403;28;20056;-54
2023/12/26 08:16:43;;;;;;;31.05;29.45;;;;;;;;;;5035402;28;20115;-53
2023/12/26 08:19:08;;;;;;;31.67;30.02;;;;;;;;;;5035525;28;20029;-50
2023/12/26 08:21:33;;;;;;;35.50;31.20;;;;;;;;;;5035269;28;20053;-51
2023/12/26 08:23:59;;;;;;;31.00;29.40;;;;;;;;;;5034308;28;20055;-54
2023/12/26 08:26:31;;;;;;;33.03;31.08;;;;;;;;;;5033492;28;20031;-55
2023/12/26 08:28:56;;;;;;;32.20;30.52;;;;;;;;;;5030394;28;20463;-53
2023/12/26 08:31:21;;;;;;;32.85;31.15;;;;;;;;;;5034381;28;20030;-54
2023/12/26 08:33:47;;;;;;;31.30;29.70;;;;;;;;;;5032718;28;20202;-48
2023/12/26 08:36:12;;;;;;;31.75;30.10;;;;;;;;;;5035811;28;20044;-48
2023/12/26 08:38:39;;;;;;;30.63;29.02;;;;;;;;;;5034014;28;20025;-54
2023/12/26 08:41:06;;;;;;;33.35;31.60;;;;;;;;;;5036230;28;20071;-54
2023/12/26 08:43:32;;;;;;;29.70;28.17;;;;;;;;;;5034391;28;20128;-53
2023/12/26 08:45:58;;;;;;;33.65;31.27;;;;;;;;;;5039404;28;20108;-53
2023/12/26 08:48:23;;;;;;;32.13;30.20;;;;;;;;;;5036053;28;20233;-52
2023/12/26 08:50:49;;;;;;;33.00;31.30;;;;;;;;;;5034279;28;20122;-53
2023/12/26 08:53:14;;;;;;;30.88;29.27;;;;;;;;;;5035495;28;20253;-54
2023/12/26 08:55:40;;;;;;;31.08;29.45;;;;;;;;;;5035201;28;20157;-54
2023/12/26 08:58:05;;;;;;;30.90;29.20;;;;;;;;;;5033812;28;20033;-56
2023/12/26 09:00:30;;;;;;;30.45;28.85;;;;;;;;;;5033806;28;20032;-55
2023/12/26 09:02:56;;;;;;;29.92;28.33;;;;;;;;;;5033557;28;20034;-58
2023/12/26 09:05:21;;;;;;;30.35;28.75;;;;;;;;;;5033462;28;20465;-55
2023/12/26 09:07:46;;;;;;;28.67;27.17;;;;;;;;;;5031703;28;20487;-52
2023/12/26 09:10:12;;;;;;;29.20;27.60;;;;;;;;;;5030254;28;20486;-52
2023/12/26 09:12:37;;;;;;;29.23;27.52;;;;;;;;;;5031784;28;20129;-52
2023/12/26 09:15:03;;;;;;;29.27;27.77;;;;;;;;;;5030101;28;20356;-54
2023/12/26 09:17:28;;;;;;;30.92;29.33;;;;;;;;;;5029629;28;20704;-53
2023/12/26 09:19:53;;;;;;;29.50;27.95;;;;;;;;;;5033123;28;20048;-48
2023/12/26 09:22:19;;;;;;;30.63;29.02;;;;;;;;;;5032018;28;20025;-51
2023/12/26 09:24:44;;;;;;;29.35;27.73;;;;;;;;;;5032178;28;20112;-52
2023/12/26 09:27:10;;;;;;;30.13;28.52;;;;;;;;;;5033366;28;20041;-51
2023/12/26 09:29:35;;;;;;;28.13;26.63;;;;;;;;;;5031045;28;20497;-51
2023/12/26 09:32:00;;;;;;;29.50;27.83;;;;;;;;;;5032831;28;20044;-53
2023/12/26 09:34:26;;;;;;;30.17;28.60;;;;;;;;;;5033722;28;20119;-52
2023/12/26 09:36:51;;;;;;;28.95;27.45;;;;;;;;;;5031587;28;20042;-52
2023/12/26 09:39:17;;;;;;;28.25;26.75;;;;;;;;;;5031117;28;20040;-52
2023/12/26 09:41:43;;;;;;;29.25;27.65;;;;;;;;;;5032021;28;20029;-55
2023/12/26 09:44:10;;;;;;;30.58;28.98;;;;;;;;;;5031467;28;20040;-53
2023/12/26 09:46:37;;;;;;;29.70;28.17;;;;;;;;;;5031655;28;20038;-52
2023/12/26 09:49:03;;;;;;;29.38;27.77;;;;;;;;;;5032365;28;20522;-54
2023/12/26 09:51:32;;;;;;;30.27;28.58;;;;;;;;;;5029598;28;20041;-51
2023/12/26 09:54:03;;;;;;;29.52;28.00;;;;;;;;;;5033229;28;20060;-54
2023/12/26 09:56:31;;;;;;;31.45;29.80;;;;;;;;;;5032173;28;20367;-52
2023/12/26 09:58:59;;;;;;;32.08;30.40;;;;;;;;;;5032186;28;20038;-53
2023/12/26 10:01:25;;;;;;;31.80;30.15;;;;;;;;;;5033076;28;20650;-54
2023/12/26 10:03:50;;;;;;;33.10;31.40;;;;;;;;;;5029336;28;20041;-50
2023/12/26 10:06:16;;;;;;;32.67;30.98;;;;;;;;;;5034111;28;20025;-52
2023/12/26 10:08:42;;;;;;;32.60;30.90;;;;;;;;;;5031532;28;20402;-55
2023/12/26 10:11:13;;;;;;;32.95;31.25;;;;;;;;;;5029935;28;20025;-53
2023/12/26 10:13:53;;;;;;;32.63;30.92;;;;;;;;;;5031415;28;20060;-53
2023/12/26 10:16:19;;;;;;;34.47;32.67;;;;;;;;;;5031239;28;20474;-52
2023/12/26 10:18:46;;;;;;;33.05;31.35;;;;;;;;;;5029284;28;20287;-53
2023/12/26 10:21:13;;;;;;;33.00;31.23;;;;;;;;;;5032333;28;20029;-54
2023/12/26 10:23:39;;;;;;;31.77;30.10;;;;;;;;;;5031022;28;20542;-52
2023/12/26 10:26:05;;;;;;;33.00;31.27;;;;;;;;;;5033679;28;20134;-52
2023/12/26 10:28:38;;;;;;;31.67;29.98;;;;;;;;;;5034473;28;21392;-53
2023/12/26 10:31:11;;;;;;;31.33;29.65;;;;;;;;;;5034259;28;20593;-50
2023/12/26 10:33:37;;;;;;;31.48;29.85;;;;;;;;;;5045774;28;20037;-49
2023/12/26 10:36:06;;;;;;;32.55;30.85;;;;;;;;;;5034222;28;20392;-50
2023/12/26 10:38:31;;;;;;;33.38;31.67;;;;;;;;;;5032907;28;20037;-51
2023/12/26 10:41:05;;;;;;;30.35;28.75;;;;;;;;;;5032321;28;20042;-51
2023/12/26 10:43:32;;;;;;;31.50;29.90;;;;;;;;;;5033434;28;20119;-52
2023/12/26 10:45:59;;;;;;;29.50;28.00;;;;;;;;;;5033153;28;20096;-49
2023/12/26 10:48:31;;;;;;;29.55;28.05;;;;;;;;;;5027648;28;20099;-51
2023/12/26 10:50:59;;;;;;;30.65;29.05;;;;;;;;;;5030584;28;20491;-51
2023/12/26 10:53:31;;;;;;;31.58;29.85;;;;;;;;;;5016984;28;20035;-50
2023/12/26 10:55:58;;;;;;;30.85;29.25;;;;;;;;;;5025184;28;20037;-51
2023/12/26 10:58:29;;;;;;;29.85;28.15;;;;;;;;;;5029287;28;20065;-53
2023/12/26 11:00:55;;;;;;;27.35;25.95;;;;;;;;;;5029018;28;20056;-52
2023/12/26 11:03:20;;;;;;;26.85;25.45;;;;;;;;;;5031951;28;20044;-55
2023/12/26 11:05:46;;;;;;;27.20;25.80;;;;;;;;;;5030114;28;20128;-51
2023/12/26 11:08:11;;;;;;;27.10;25.70;;;;;;;;;;5030442;28;20052;-51
2023/12/26 11:10:37;;;;;;;27.45;25.95;;;;;;;;;;5026205;28;20030;-52
2023/12/26 11:13:02;;;;;;;26.67;25.27;;;;;;;;;;5030532;28;20033;-55
2023/12/26 11:15:27;;;;;;;24.98;23.67;;;;;;;;;;5032431;28;20032;-50
2023/12/26 11:17:53;;;;;;;27.60;26.15;;;;;;;;;;5027662;28;20112;-52
2023/12/26 11:20:18;;;;;;;26.52;25.13;;;;;;;;;;5030596;28;20029;-51
2023/12/26 11:22:44;;;;;;;26.17;24.77;;;;;;;;;;5029835;28;20032;-51
2023/12/26 11:25:09;;;;;;;24.88;23.58;;;;;;;;;;5027469;28;20036;-53
2023/12/26 11:27:35;;;;;;;25.67;24.30;;;;;;;;;;5031298;28;20474;-52
2023/12/26 11:30:00;;;;;;;26.42;24.77;;;;;;;;;;5026804;28;20234;-48
2023/12/26 11:32:26;;;;;;;28.23;26.73;;;;;;;;;;5029359;28;20045;-51
2023/12/26 11:34:51;;;;;;;26.75;25.35;;;;;;;;;;5028573;28;20033;-51
2023/12/26 11:37:17;;;;;;;25.77;24.38;;;;;;;;;;5028753;28;20037;-49
2023/12/26 11:39:42;;;;;;;24.63;23.33;;;;;;;;;;5032181;28;20043;-49
2023/12/26 11:42:08;;;;;;;24.67;23.38;;;;;;;;;;5029086;28;20030;-49
2023/12/26 11:44:33;;;;;;;26.00;24.63;;;;;;;;;;5028803;28;20053;-49
2023/12/26 11:46:58;;;;;;;25.42;24.08;;;;;;;;;;5032090;28;20048;-48
2023/12/26 11:49:24;;;;;;;25.58;24.23;;;;;;;;;;5030488;28;20092;-49
2023/12/26 11:51:49;;;;;;;26.00;24.60;;;;;;;;;;5031793;28;20042;-53
2023/12/26 11:54:15;;;;;;;26.23;24.83;;;;;;;;;;5028514;28;20036;-50
2023/12/26 11:56:40;;;;;;;26.95;25.55;;;;;;;;;;5032451;28;20037;-51
2023/12/26 11:59:05;;;;;;;27.70;26.30;;;;;;;;;;5029215;28;20531;-51
2023/12/26 12:01:31;;;;;;;26.10;24.70;;;;;;;;;;5030703;28;20072;-51
2023/12/26 12:03:56;;;;;;;28.23;26.73;;;;;;;;;;5026373;28;20713;-51
2023/12/26 12:06:21;;;;;;;25.30;24.00;;;;;;;;;;5031684;28;20056;-57
2023/12/26 12:09:03;;;;;;;25.58;24.25;;;;;;;;;;5029119;28;20049;-48
2023/12/26 12:11:29;;;;;;;25.35;23.98;;;;;;;;;;5030534;28;20040;-52
2023/12/26 12:13:54;;;;;;;25.73;24.33;;;;;;;;;;5030284;28;20059;-48
2023/12/26 12:16:24;;;;;;;26.67;25.27;;;;;;;;;;5028767;28;20980;-48
2023/12/26 12:18:59;;;;;;;25.17;23.85;;;;;;;;;;5031866;28;20029;-54
2023/12/26 12:21:35;;;;;;;25.38;24.08;;;;;;;;;;5031440;28;20531;-50
2023/12/26 12:24:00;;;;;;;26.77;25.38;;;;;;;;;;5027645;28;20060;-50
2023/12/26 12:26:25;;;;;;;26.67;25.27;;;;;;;;;;5030510;28;20037;-49
2023/12/26 12:29:03;;;;;;;26.38;24.98;;;;;;;;;;5030072;28;20102;-47
2023/12/26 12:31:28;;;;;;;25.35;24.05;;;;;;;;;;5033861;28;20459;-46
2023/12/26 12:34:11;;;;;;;27.48;26.02;;;;;;;;;;5028844;28;20051;-48
2023/12/26 12:36:37;;;;;;;25.60;24.27;;;;;;;;;;5027804;28;20037;-48
2023/12/26 12:39:02;;;;;;;26.02;24.63;;;;;;;;;;5030643;28;20143;-46
2023/12/26 12:41:32;;;;;;;26.65;25.25;;;;;;;;;;5031930;28;20124;-45
2023/12/26 12:43:58;;;;;;;26.38;24.98;;;;;;;;;;5031919;28;20478;-46
2023/12/26 12:46:23;;;;;;;26.63;25.23;;;;;;;;;;5034723;28;20051;-49
2023/12/26 12:48:49;;;;;;;26.75;25.35;;;;;;;;;;5032001;28;20044;-48
2023/12/26 12:51:15;;;;;;;27.42;26.02;;;;;;;;;;5032403;28;20033;-51
2023/12/26 12:53:40;;;;;;;25.95;24.55;;;;;;;;;;5034310;28;20041;-49
2023/12/26 12:56:06;;;;;;;26.80;25.40;;;;;;;;;;5034611;28;20590;-47
2023/12/26 12:58:31;;;;;;;26.42;25.05;;;;;;;;;;5033921;28;20113;-46
2023/12/26 13:00:56;;;;;;;25.83;24.45;;;;;;;;;;5032004;28;20056;-52
2023/12/26 13:03:22;;;;;;;26.52;25.13;;;;;;;;;;5031214;28;20052;-47
2023/12/26 13:05:47;;;;;;;27.20;25.80;;;;;;;;;;5032050;28;20041;-49
2023/12/26 13:08:13;;;;;;;25.52;24.23;;;;;;;;;;5032677;28;20483;-49
2023/12/26 13:10:38;;;;;;;26.40;25.00;;;;;;;;;;5032629;28;20041;-52
2023/12/26 13:13:04;;;;;;;27.63;26.20;;;;;;;;;;5031942;28;20112;-45
2023/12/26 13:15:29;;;;;;;26.20;24.80;;;;;;;;;;5033484;28;21112;-48
2023/12/26 13:17:55;;;;;;;25.85;24.45;;;;;;;;;;5031950;28;20086;-51
2023/12/26 13:20:20;;;;;;;26.55;25.15;;;;;;;;;;5033865;28;20335;-54
2023/12/26 13:22:46;;;;;;;27.95;26.45;;;;;;;;;;5034796;28;20580;-54
2023/12/26 13:25:11;;;;;;;26.55;25.15;;;;;;;;;;5032405;28;21227;-49
2023/12/26 13:27:36;;;;;;;27.85;26.40;;;;;;;;;;5031126;28;20063;-49
2023/12/26 13:30:02;;;;;;;26.35;24.95;;;;;;;;;;5032381;28;20033;-52
2023/12/26 13:32:27;;;;;;;27.70;26.25;;;;;;;;;;5014716;28;20048;-51
2023/12/26 13:34:52;;;;;;;26.52;25.13;;;;;;;;;;5032352;28;20052;-48
2023/12/26 13:37:18;;;;;;;27.45;26.05;;;;;;;;;;5030762;28;20041;-49
2023/12/26 13:39:43;;;;;;;26.60;25.20;;;;;;;;;;5030050;28;20138;-49
2023/12/26 13:42:08;;;;;;;26.77;25.38;;;;;;;;;;5032083;28;21107;-51
2023/12/26 13:44:36;;;;;;;26.20;24.80;;;;;;;;;;5030966;28;20045;-47
2023/12/26 13:47:01;;;;;;;27.67;26.25;;;;;;;;;;5034891;28;20114;-48
2023/12/26 13:49:27;;;;;;;27.13;25.73;;;;;;;;;;5033553;28;20459;-50
2023/12/26 13:51:52;;;;;;;26.58;25.17;;;;;;;;;;5032310;28;20039;-47
2023/12/26 13:54:19;;;;;;;27.00;25.60;;;;;;;;;;5030106;28;20075;-47
2023/12/26 13:56:44;;;;;;;26.33;24.92;;;;;;;;;;5029641;28;20045;-49
2023/12/26 13:59:10;;;;;;;26.23;24.83;;;;;;;;;;5032461;28;20045;-49
2023/12/26 14:01:35;;;;;;;25.42;24.02;;;;;;;;;;5034751;28;20056;-50
2023/12/26 14:04:01;;;;;;;24.92;23.55;;;;;;;;;;5035258;28;20041;-53
2023/12/26 14:06:26;;;;;;;25.52;24.15;;;;;;;;;;5030117;28;20028;-53
2023/12/26 14:08:52;;;;;;;24.73;23.42;;;;;;;;;;5030598;28;20759;-49